Time;durP1;ratioP1;P1;durP2;ratioP2;P2;SDS_P1;SDS_P2;PMS_P1;PMS_P2;Temp;Humidity;BMP_temperature;BMP_pressure;BME280_temperature;BME280_humidity;BME280_pressure;Samples;Min_cycle;Max_cycle;Signal;HPM_P1;HPM_P2
2023/06/10 00:00:43;;;;;;;24.52;14.98;;;15.90;99.90;;;;;;5096135;28;20028;-62
2023/06/10 00:03:10;;;;;;;34.45;18.13;;;16.00;99.90;;;;;;5096107;28;20032;-61
2023/06/10 00:05:38;;;;;;;29.65;17.50;;;15.90;99.90;;;;;;5096247;28;20030;-62
2023/06/10 00:08:08;;;;;;;39.17;15.90;;;15.90;99.90;;;;;;5096004;28;20024;-61
2023/06/10 00:10:35;;;;;;;31.60;15.65;;;15.90;99.90;;;;;;5095989;28;20024;-61
2023/06/10 00:13:03;;;;;;;21.17;13.45;;;15.80;99.90;;;;;;5096058;28;20050;-61
2023/06/10 00:15:29;;;;;;;23.70;13.68;;;15.80;99.90;;;;;;5096005;28;20046;-62
2023/06/10 00:17:55;;;;;;;24.13;13.35;;;15.90;99.90;;;;;;5095940;28;20049;-62
2023/06/10 00:20:23;;;;;;;28.05;13.15;;;15.80;99.90;;;;;;5095846;28;20063;-61
2023/06/10 00:22:50;;;;;;;20.55;13.23;;;15.80;99.90;;;;;;5095696;28;20027;-62
2023/06/10 00:25:17;;;;;;;19.88;12.05;;;15.80;99.90;;;;;;5095649;28;20074;-61
2023/06/10 00:27:43;;;;;;;25.48;13.52;;;15.70;99.90;;;;;;5095536;28;20028;-62
2023/06/10 00:30:09;;;;;;;24.25;14.35;;;15.70;99.90;;;;;;5095636;28;20024;-61
2023/06/10 00:32:36;;;;;;;27.17;14.38;;;15.70;99.90;;;;;;5095643;28;20020;-61
2023/06/10 00:35:06;;;;;;;25.08;14.27;;;15.60;99.90;;;;;;5094301;28;20051;-61
2023/06/10 00:37:35;;;;;;;26.83;14.55;;;15.70;99.90;;;;;;5095375;28;20478;-61
2023/06/10 00:40:05;;;;;;;23.92;13.10;;;15.70;99.90;;;;;;5094081;28;20024;-62
2023/06/10 00:42:31;;;;;;;24.15;14.52;;;15.70;99.90;;;;;;5095588;28;20028;-62
2023/06/10 00:44:57;;;;;;;22.48;13.90;;;15.70;99.90;;;;;;5094206;28;20071;-62
2023/06/10 00:47:25;;;;;;;21.33;13.80;;;15.70;99.90;;;;;;5095468;28;20024;-61
2023/06/10 00:49:51;;;;;;;22.38;12.55;;;15.60;99.90;;;;;;5093886;28;20067;-61
2023/06/10 00:52:19;;;;;;;26.70;13.73;;;15.60;99.90;;;;;;5095283;28;20032;-61
2023/06/10 00:54:46;;;;;;;21.33;13.07;;;15.60;99.90;;;;;;5095350;28;20024;-61
2023/06/10 00:57:15;;;;;;;22.90;12.32;;;15.60;99.90;;;;;;5093933;28;20063;-61
2023/06/10 00:59:47;;;;;;;20.50;13.40;;;15.50;99.90;;;;;;5095132;28;20035;-61
2023/06/10 01:02:13;;;;;;;25.42;12.57;;;15.50;99.90;;;;;;5093751;28;20101;-61
2023/06/10 01:04:39;;;;;;;19.30;12.85;;;15.50;99.90;;;;;;5095002;28;20024;-61
2023/06/10 01:07:26;;;;;;;24.52;13.25;;;15.50;99.90;;;;;;5093718;28;20139;-62
2023/06/10 01:10:23;;;;;;;24.20;12.38;;;15.30;99.90;;;;;;5093385;28;20096;-61
2023/06/10 01:13:11;;;;;;;20.88;12.20;;;15.40;99.90;;;;;;5093707;28;20032;-61
2023/06/10 01:15:38;;;;;;;22.00;12.05;;;15.40;99.90;;;;;;5095006;28;20028;-61
2023/06/10 01:18:09;;;;;;;19.63;12.07;;;15.40;99.90;;;;;;5094910;28;20027;-61
2023/06/10 01:20:39;;;;;;;21.05;11.75;;;15.40;99.90;;;;;;5094697;28;20020;-61
2023/06/10 01:23:06;;;;;;;21.05;12.13;;;15.40;99.90;;;;;;5094872;28;20024;-61
2023/06/10 01:25:36;;;;;;;18.33;12.10;;;15.40;99.90;;;;;;5094789;28;20114;-61
2023/06/10 01:28:17;;;;;;;18.52;12.63;;;15.40;99.90;;;;;;5094742;28;20028;-62
2023/06/10 01:30:48;;;;;;;18.05;12.00;;;15.40;99.90;;;;;;5094764;28;20088;-61
2023/06/10 01:33:23;;;;;;;23.23;13.07;;;15.40;99.90;;;;;;5093440;28;20024;-61
2023/06/10 01:35:51;;;;;;;23.67;13.15;;;15.40;99.90;;;;;;5094208;28;20034;-62
2023/06/10 01:38:19;;;;;;;22.30;13.07;;;15.30;99.90;;;;;;5093065;28;20052;-61
2023/06/10 01:40:46;;;;;;;20.48;11.43;;;15.20;99.90;;;;;;5093301;28;20486;-61
2023/06/10 01:43:12;;;;;;;18.20;11.75;;;15.30;99.90;;;;;;5094782;28;20028;-61
2023/06/10 01:45:39;;;;;;;21.70;11.98;;;15.20;99.90;;;;;;5093235;28;20413;-62
2023/06/10 01:48:05;;;;;;;19.38;12.60;;;15.20;99.90;;;;;;5094512;28;20031;-61
2023/06/10 01:50:31;;;;;;;20.98;12.35;;;15.20;99.90;;;;;;5094431;28;20028;-61
2023/06/10 01:52:58;;;;;;;20.50;13.23;;;15.20;99.90;;;;;;5093156;28;20381;-62
2023/06/10 01:55:24;;;;;;;19.73;12.45;;;15.20;99.90;;;;;;5094500;28;20093;-61
2023/06/10 01:57:51;;;;;;;21.63;12.18;;;15.10;99.90;;;;;;5093067;28;20024;-61
2023/06/10 02:00:17;;;;;;;21.00;12.23;;;15.10;99.90;;;;;;5093057;28;20031;-61
2023/06/10 02:02:44;;;;;;;24.63;11.18;;;15.10;99.90;;;;;;5094444;28;20160;-61
2023/06/10 02:05:10;;;;;;;24.38;12.43;;;15.10;99.90;;;;;;5094349;28;20049;-61
2023/06/10 02:07:36;;;;;;;20.80;12.90;;;15.10;99.90;;;;;;5094172;28;20064;-61
2023/06/10 02:10:02;;;;;;;22.58;12.57;;;15.10;99.90;;;;;;5093070;28;20027;-61
2023/06/10 02:12:28;;;;;;;21.23;12.07;;;15.00;99.90;;;;;;5094375;28;20228;-61
2023/06/10 02:14:54;;;;;;;28.13;12.90;;;15.00;99.90;;;;;;5092890;28;20205;-61
2023/06/10 02:17:20;;;;;;;19.30;11.98;;;15.10;99.90;;;;;;5094328;28;20035;-61
2023/06/10 02:19:52;;;;;;;23.73;12.23;;;15.10;99.90;;;;;;5094202;28;20048;-61
2023/06/10 02:22:22;;;;;;;16.25;11.65;;;15.10;99.90;;;;;;5094280;28;20032;-61
2023/06/10 02:24:49;;;;;;;19.70;12.32;;;15.10;99.90;;;;;;5092928;28;20097;-61
2023/06/10 02:27:16;;;;;;;19.77;12.63;;;15.10;99.90;;;;;;5092824;28;20450;-61
2023/06/10 02:29:43;;;;;;;20.35;12.80;;;15.10;99.90;;;;;;5094043;28;20088;-61
2023/06/10 02:32:10;;;;;;;19.60;12.77;;;15.10;99.90;;;;;;5092698;28;20047;-61
2023/06/10 02:34:39;;;;;;;26.05;12.38;;;15.00;99.90;;;;;;5092921;28;20025;-61
2023/06/10 02:37:06;;;;;;;22.90;13.27;;;15.00;99.90;;;;;;5092637;28;20125;-61
2023/06/10 02:39:32;;;;;;;22.20;13.27;;;15.00;99.90;;;;;;5094052;28;20265;-61
2023/06/10 02:41:58;;;;;;;25.77;12.52;;;15.00;99.90;;;;;;5092695;28;20105;-62
2023/06/10 02:44:24;;;;;;;24.55;12.77;;;14.90;99.90;;;;;;5092703;28;20059;-62
2023/06/10 02:46:50;;;;;;;21.30;12.80;;;15.00;99.90;;;;;;5092620;28;20028;-62
2023/06/10 02:49:16;;;;;;;22.67;12.35;;;14.90;99.90;;;;;;5096375;28;20028;-61
2023/06/10 02:51:44;;;;;;;24.20;15.60;;;14.90;99.90;;;;;;5096388;28;20028;-62
2023/06/10 02:54:10;;;;;;;25.52;13.80;;;14.90;99.90;;;;;;5096209;28;20035;-62
2023/06/10 02:56:41;;;;;;;19.90;12.93;;;14.90;99.90;;;;;;5097678;28;20024;-62
2023/06/10 02:59:11;;;;;;;24.85;12.88;;;14.90;99.90;;;;;;5096081;28;20027;-61
2023/06/10 03:01:37;;;;;;;23.73;13.70;;;14.80;99.90;;;;;;5096077;28;20024;-61
2023/06/10 03:04:08;;;;;;;20.43;12.77;;;14.80;99.90;;;;;;5096136;28;20024;-61
2023/06/10 03:06:35;;;;;;;21.98;13.05;;;14.70;99.90;;;;;;5097570;28;20027;-61
2023/06/10 03:09:16;;;;;;;24.90;13.63;;;14.70;99.90;;;;;;5095906;28;20311;-61
2023/06/10 03:11:46;;;;;;;19.10;12.38;;;14.70;99.90;;;;;;5095965;28;20032;-61
2023/06/10 03:14:12;;;;;;;26.50;12.93;;;14.60;99.90;;;;;;5095878;28;20024;-62
2023/06/10 03:16:40;;;;;;;19.88;12.40;;;14.60;99.90;;;;;;5095810;28;20060;-61
2023/06/10 03:19:07;;;;;;;21.92;12.35;;;14.70;99.90;;;;;;5095833;28;20028;-62
2023/06/10 03:21:37;;;;;;;23.52;13.07;;;14.60;99.90;;;;;;5095885;28;20028;-62
2023/06/10 03:24:05;;;;;;;25.93;12.67;;;14.70;99.90;;;;;;5095777;28;20477;-62
2023/06/10 03:26:33;;;;;;;23.27;13.00;;;14.70;99.90;;;;;;5095633;28;20095;-62
2023/06/10 03:28:59;;;;;;;27.23;12.82;;;14.70;99.90;;;;;;5095518;28;20028;-62
2023/06/10 03:31:25;;;;;;;24.65;13.35;;;14.70;99.90;;;;;;5095552;28;20493;-62
2023/06/10 03:33:53;;;;;;;20.92;12.55;;;14.70;99.90;;;;;;5095629;28;20035;-62
2023/06/10 03:36:19;;;;;;;26.35;12.90;;;14.70;99.90;;;;;;5095159;28;20027;-61
2023/06/10 03:38:47;;;;;;;20.52;14.43;;;14.80;99.90;;;;;;5095286;28;20129;-61
2023/06/10 03:41:13;;;;;;;24.75;15.13;;;14.90;99.90;;;;;;5095251;28;20130;-61
2023/06/10 03:43:41;;;;;;;27.27;15.13;;;15.00;99.90;;;;;;5095268;28;20036;-62
2023/06/10 03:46:08;;;;;;;25.40;15.48;;;14.90;99.90;;;;;;5095296;28;20032;-61
2023/06/10 03:48:34;;;;;;;20.85;14.95;;;15.00;99.90;;;;;;5096177;28;20089;-62
2023/06/10 03:51:00;;;;;;;27.20;15.10;;;15.10;99.90;;;;;;5095215;28;20016;-62
2023/06/10 03:53:26;;;;;;;23.73;14.38;;;15.20;99.90;;;;;;5095035;28;20035;-62
2023/06/10 03:55:52;;;;;;;25.08;15.15;;;15.30;99.90;;;;;;5095184;28;20071;-61
2023/06/10 03:58:21;;;;;;;27.00;15.43;;;15.40;99.90;;;;;;5094553;28;20045;-61
2023/06/10 04:00:49;;;;;;;27.98;14.98;;;15.40;99.90;;;;;;5095058;28;20028;-62
2023/06/10 04:03:15;;;;;;;23.02;15.13;;;15.50;99.90;;;;;;5096272;28;20039;-62
2023/06/10 04:05:44;;;;;;;32.83;14.90;;;15.60;99.90;;;;;;5096263;28;20032;-61
2023/06/10 04:08:10;;;;;;;22.25;15.00;;;15.60;99.90;;;;;;5095948;28;20035;-62
2023/06/10 04:10:37;;;;;;;22.92;14.13;;;15.70;99.90;;;;;;5094868;28;20066;-61
2023/06/10 04:13:03;;;;;;;20.45;13.73;;;15.80;99.90;;;;;;5096293;28;20464;-62
2023/06/10 04:15:34;;;;;;;21.27;14.00;;;15.90;99.90;;;;;;5094643;28;20024;-62
2023/06/10 04:18:06;;;;;;;27.42;15.88;;;15.80;99.90;;;;;;5094680;28;20028;-62
2023/06/10 04:20:32;;;;;;;19.80;15.00;;;16.00;99.90;;;;;;5094725;28;20028;-62
2023/06/10 04:22:59;;;;;;;25.50;18.13;;;16.00;99.90;;;;;;5095899;28;20097;-62
2023/06/10 04:25:26;;;;;;;31.50;16.10;;;15.90;99.90;;;;;;5094424;28;20489;-62
2023/06/10 04:27:53;;;;;;;25.17;14.07;;;16.10;99.90;;;;;;5094422;28;20067;-62
2023/06/10 04:30:19;;;;;;;20.95;14.57;;;16.20;99.90;;;;;;5094238;28;20480;-61
2023/06/10 04:32:46;;;;;;;25.45;14.27;;;16.20;99.90;;;;;;5094474;28;20029;-62
2023/06/10 04:35:16;;;;;;;24.02;15.07;;;16.30;99.90;;;;;;5094152;28;20054;-61
2023/06/10 04:37:42;;;;;;;27.80;15.65;;;16.20;99.90;;;;;;5094161;28;20059;-61
2023/06/10 04:40:10;;;;;;;19.35;13.80;;;16.10;99.90;;;;;;5094153;28;20020;-62
2023/06/10 04:42:36;;;;;;;23.38;15.23;;;16.20;99.90;;;;;;5094174;28;20062;-62
2023/06/10 04:45:03;;;;;;;24.67;14.63;;;16.30;99.90;;;;;;5094204;28;20028;-62
2023/06/10 04:47:32;;;;;;;29.80;15.85;;;16.40;99.90;;;;;;5094201;28;20024;-61
2023/06/10 04:50:00;;;;;;;25.33;15.30;;;16.40;99.90;;;;;;5094044;28;20500;-62
2023/06/10 04:52:27;;;;;;;28.33;15.65;;;16.50;99.90;;;;;;5095262;28;20081;-62
2023/06/10 04:54:54;;;;;;;26.45;16.25;;;16.70;99.90;;;;;;5093998;28;20127;-62
2023/06/10 04:57:20;;;;;;;22.25;14.85;;;16.80;99.90;;;;;;5095138;28;20458;-62
2023/06/10 04:59:47;;;;;;;21.15;14.90;;;16.90;99.90;;;;;;5095189;28;20028;-62
2023/06/10 05:02:13;;;;;;;27.08;15.30;;;17.00;99.90;;;;;;5095010;28;20026;-61
2023/06/10 05:04:39;;;;;;;22.67;15.32;;;16.90;99.90;;;;;;5095059;28;20032;-62
2023/06/10 05:07:05;;;;;;;23.30;14.85;;;17.00;99.90;;;;;;5095148;28;20602;-62
2023/06/10 05:09:32;;;;;;;21.15;13.43;;;17.00;99.90;;;;;;5094560;28;20038;-61
2023/06/10 05:11:58;;;;;;;22.88;13.38;;;17.20;99.90;;;;;;5094767;28;20032;-61
2023/06/10 05:14:24;;;;;;;29.65;15.55;;;17.30;99.90;;;;;;5094905;28;20034;-61
2023/06/10 05:16:50;;;;;;;24.30;14.13;;;17.40;99.90;;;;;;5094571;28;20083;-61
2023/06/10 05:19:17;;;;;;;25.13;14.70;;;17.50;99.90;;;;;;5094943;28;20039;-62
2023/06/10 05:21:44;;;;;;;25.60;14.60;;;17.60;99.90;;;;;;5094861;28;20035;-62
2023/06/10 05:24:10;;;;;;;24.27;15.07;;;17.60;99.90;;;;;;5094789;28;20028;-61
2023/06/10 05:26:37;;;;;;;21.70;13.68;;;17.60;99.90;;;;;;5094768;28;20032;-62
2023/06/10 05:29:09;;;;;;;19.77;13.60;;;17.70;99.90;;;;;;5094729;28;20030;-61
2023/06/10 05:31:34;;;;;;;23.48;14.85;;;17.80;99.90;;;;;;5094906;28;20063;-61
2023/06/10 05:34:00;;;;;;;23.48;14.95;;;17.90;99.90;;;;;;5094721;28;20081;-61
2023/06/10 05:36:27;;;;;;;21.15;14.35;;;17.80;99.90;;;;;;5094467;28;20028;-61
2023/06/10 05:38:53;;;;;;;20.35;14.02;;;17.80;99.90;;;;;;5094437;28;20040;-62
2023/06/10 05:41:21;;;;;;;21.90;14.82;;;18.10;99.90;;;;;;5094527;28;20075;-62
2023/06/10 05:43:47;;;;;;;20.25;14.70;;;18.20;99.90;;;;;;5094414;28;20460;-62
2023/06/10 05:46:13;;;;;;;29.15;14.60;;;18.40;99.90;;;;;;5094585;28;20115;-62
2023/06/10 05:48:39;;;;;;;22.92;14.48;;;18.50;99.90;;;;;;5094319;28;20039;-62
2023/06/10 05:51:05;;;;;;;24.08;13.48;;;18.70;99.90;;;;;;5094603;28;20063;-62
2023/06/10 05:53:32;;;;;;;21.73;14.43;;;18.90;99.90;;;;;;5094442;28;20024;-62
2023/06/10 05:55:58;;;;;;;19.52;14.23;;;19.00;99.90;;;;;;5094337;28;20025;-61
2023/06/10 05:58:24;;;;;;;19.50;12.70;;;19.20;99.90;;;;;;5094102;28;20031;-62
2023/06/10 06:00:50;;;;;;;21.40;13.98;;;19.00;99.90;;;;;;5094388;28;20027;-62
2023/06/10 06:03:17;;;;;;;20.40;14.55;;;19.20;99.90;;;;;;5094433;28;20032;-61
2023/06/10 06:05:43;;;;;;;28.05;16.17;;;19.20;99.90;;;;;;5094733;28;20032;-62
2023/06/10 06:08:10;;;;;;;24.45;15.48;;;19.30;99.90;;;;;;5094193;28;20051;-62
2023/06/10 06:10:35;;;;;;;27.65;14.20;;;19.40;99.90;;;;;;5094249;28;20020;-61
2023/06/10 06:13:02;;;;;;;26.08;15.25;;;19.20;99.90;;;;;;5094268;28;20024;-61
2023/06/10 06:15:28;;;;;;;20.17;14.05;;;19.30;99.90;;;;;;5094397;28;20039;-61
2023/06/10 06:17:54;;;;;;;24.17;15.00;;;19.60;99.90;;;;;;5094270;28;20032;-62
2023/06/10 06:20:20;;;;;;;25.67;15.65;;;19.90;99.90;;;;;;5094094;28;20028;-62
2023/06/10 06:22:46;;;;;;;21.30;14.95;;;19.80;99.90;;;;;;5097901;28;20027;-61
2023/06/10 06:25:12;;;;;;;23.05;15.38;;;19.80;99.90;;;;;;5098002;28;20028;-62
2023/06/10 06:27:39;;;;;;;25.17;14.52;;;19.80;99.90;;;;;;5097985;28;20477;-62
2023/06/10 06:30:05;;;;;;;20.67;14.63;;;20.00;99.90;;;;;;5098032;28;20035;-62
2023/06/10 06:32:31;;;;;;;26.77;16.95;;;20.30;99.90;;;;;;5098048;28;20493;-61
2023/06/10 06:34:58;;;;;;;25.15;14.55;;;20.60;99.90;;;;;;5096546;28;20020;-62
2023/06/10 06:37:25;;;;;;;19.70;14.40;;;20.80;99.90;;;;;;5096278;28;20044;-61
2023/06/10 06:39:59;;;;;;;25.02;14.15;;;20.80;99.90;;;;;;5096583;28;20511;-62
2023/06/10 06:42:25;;;;;;;22.48;14.50;;;20.80;99.90;;;;;;5097788;28;20036;-61
2023/06/10 06:44:59;;;;;;;24.05;13.32;;;21.10;99.90;;;;;;5096461;28;20024;-61
2023/06/10 06:47:26;;;;;;;25.08;13.52;;;21.10;99.90;;;;;;5097748;28;20028;-62
2023/06/10 06:49:52;;;;;;;21.02;13.93;;;21.30;99.90;;;;;;5097525;28;20028;-62
2023/06/10 06:52:19;;;;;;;16.65;12.30;;;21.50;99.90;;;;;;5097763;28;20052;-62
2023/06/10 06:54:45;;;;;;;20.13;12.65;;;21.60;99.90;;;;;;5096241;28;20039;-62
2023/06/10 06:57:11;;;;;;;18.33;11.77;;;21.80;99.90;;;;;;5097457;28;20107;-62
2023/06/10 06:59:37;;;;;;;19.85;12.65;;;21.80;99.90;;;;;;5097596;28;20052;-61
2023/06/10 07:02:03;;;;;;;24.63;12.32;;;22.00;99.90;;;;;;5097457;28;20047;-62
2023/06/10 07:04:30;;;;;;;18.63;12.35;;;22.10;99.90;;;;;;5097608;28;20028;-62
2023/06/10 07:06:56;;;;;;;22.05;11.65;;;22.40;99.90;;;;;;5097390;28;20036;-62
2023/06/10 07:09:21;;;;;;;21.42;11.98;;;22.40;99.90;;;;;;5097076;28;20038;-62
2023/06/10 07:11:47;;;;;;;13.77;9.68;;;22.70;99.90;;;;;;5097303;28;20430;-62
2023/06/10 07:14:13;;;;;;;17.45;9.93;;;23.00;99.90;;;;;;5097381;28;20067;-62
2023/06/10 07:16:39;;;;;;;15.52;9.38;;;23.40;99.90;;;;;;5097505;28;20020;-62
2023/06/10 07:19:05;;;;;;;15.63;9.50;;;23.60;99.90;;;;;;5097109;28;20377;-62
2023/06/10 07:21:32;;;;;;;16.42;9.55;;;23.90;99.90;;;;;;5097215;28;20050;-62
2023/06/10 07:23:58;;;;;;;19.45;10.05;;;23.70;99.90;;;;;;5096881;28;20047;-62
2023/06/10 07:26:25;;;;;;;20.52;11.30;;;24.00;99.90;;;;;;5096901;28;20032;-62
2023/06/10 07:28:51;;;;;;;21.45;10.93;;;24.40;99.90;;;;;;5096916;28;20099;-62
2023/06/10 07:31:17;;;;;;;19.95;11.88;;;24.90;99.90;;;;;;5096883;28;20107;-62
2023/06/10 07:33:43;;;;;;;19.00;10.38;;;25.00;99.90;;;;;;5094958;28;20428;-62
2023/06/10 07:36:09;;;;;;;17.42;11.07;;;25.50;99.90;;;;;;5096437;28;20028;-62
2023/06/10 07:38:36;;;;;;;19.40;11.20;;;25.60;99.90;;;;;;5096439;28;20044;-63
2023/06/10 07:41:02;;;;;;;18.40;10.95;;;25.90;99.90;;;;;;5096691;28;20035;-62
2023/06/10 07:43:28;;;;;;;16.48;10.60;;;26.20;99.90;;;;;;5096643;28;20082;-62
2023/06/10 07:45:54;;;;;;;16.77;11.48;;;26.40;99.90;;;;;;5096631;28;20054;-63
2023/06/10 07:48:20;;;;;;;22.95;12.45;;;25.90;99.90;;;;;;5096538;28;20103;-63
2023/06/10 07:50:46;;;;;;;21.55;11.95;;;26.30;99.90;;;;;;5096601;28;20115;-62
2023/06/10 07:53:12;;;;;;;24.05;12.52;;;26.70;99.90;;;;;;5096383;28;20020;-63
2023/06/10 07:55:38;;;;;;;21.20;12.07;;;27.10;99.90;;;;;;5096498;28;20099;-63
2023/06/10 07:58:03;;;;;;;27.73;14.60;;;27.40;99.90;;;;;;5096337;28;20105;-63
2023/06/10 08:00:29;;;;;;;33.38;15.40;;;27.50;99.90;;;;;;5096496;28;20465;-63
2023/06/10 08:02:55;;;;;;;24.35;13.75;;;27.50;99.90;;;;;;5096312;28;20288;-63
2023/06/10 08:05:21;;;;;;;32.22;15.75;;;27.10;99.90;;;;;;5096222;28;20030;-63
2023/06/10 08:07:47;;;;;;;30.73;14.93;;;27.50;99.90;;;;;;5096195;28;20039;-63
2023/06/10 08:10:13;;;;;;;30.95;16.63;;;27.60;99.90;;;;;;5096028;28;20066;-63
2023/06/10 08:12:39;;;;;;;25.65;15.25;;;27.60;99.90;;;;;;5094758;28;20040;-63
2023/06/10 08:15:06;;;;;;;26.48;15.70;;;27.90;99.90;;;;;;5096022;28;20447;-63
2023/06/10 08:17:32;;;;;;;24.52;13.18;;;28.10;99.90;;;;;;5095986;28;20060;-63
2023/06/10 08:19:58;;;;;;;26.15;15.15;;;28.30;99.90;;;;;;5095929;28;20047;-63
2023/06/10 08:22:24;;;;;;;25.08;13.93;;;28.30;99.90;;;;;;5095814;28;20036;-63
2023/06/10 08:24:50;;;;;;;30.35;14.35;;;28.50;99.90;;;;;;5095810;28;20035;-63
2023/06/10 08:27:16;;;;;;;31.27;15.73;;;28.20;99.90;;;;;;5095832;28;20024;-62
2023/06/10 08:29:41;;;;;;;27.65;15.88;;;28.50;99.90;;;;;;5095590;28;20027;-62
2023/06/10 08:32:07;;;;;;;33.35;16.48;;;28.70;99.90;;;;;;5095748;28;20024;-62
2023/06/10 08:34:37;;;;;;;27.35;14.45;;;29.00;99.90;;;;;;5095813;28;20020;-62
2023/06/10 08:37:04;;;;;;;24.77;15.50;;;29.20;99.90;;;;;;5095386;28;20044;-62
2023/06/10 08:39:32;;;;;;;25.45;15.90;;;29.40;99.90;;;;;;5095578;28;20028;-62
2023/06/10 08:42:39;;;;;;;25.77;15.10;;;29.20;99.90;;;;;;5095605;28;20031;-62
2023/06/10 08:45:11;;;;;;;29.75;15.20;;;28.50;99.90;;;;;;5031774;28;20032;-63
2023/06/10 08:47:41;;;;;;;21.40;12.60;;;28.90;99.90;;;;;;5032809;28;20033;-63
2023/06/10 08:50:08;;;;;;;19.15;12.07;;;29.10;99.90;;;;;;5016231;28;20057;-62
2023/06/10 08:52:39;;;;;;;14.68;10.02;;;29.00;99.90;;;;;;5015995;28;20032;-62
2023/06/10 08:55:15;;;;;;;20.02;11.23;;;28.60;99.90;;;;;;5032703;28;20031;-62
2023/06/10 08:57:44;;;;;;;19.00;10.32;;;28.00;99.90;;;;;;5032545;28;20036;-62
2023/06/10 09:00:11;;;;;;;23.50;13.50;;;28.50;99.90;;;;;;5032493;28;20136;-62
2023/06/10 09:02:38;;;;;;;23.63;13.55;;;28.30;99.90;;;;;;5032668;28;20038;-62
2023/06/10 09:05:05;;;;;;;23.05;12.63;;;28.80;99.90;;;;;;5032504;28;20072;-62
2023/06/10 09:07:31;;;;;;;21.48;12.25;;;29.40;99.90;;;;;;5032577;28;20033;-62
2023/06/10 09:09:58;;;;;;;21.85;11.60;;;29.60;99.90;;;;;;5032229;28;20033;-62
2023/06/10 09:12:24;;;;;;;19.75;9.68;;;29.80;99.90;;;;;;5032328;28;20072;-62
2023/06/10 09:14:50;;;;;;;13.63;8.52;;;30.50;99.90;;;;;;5032270;28;20049;-62
2023/06/10 09:17:17;;;;;;;15.70;9.73;;;30.70;99.90;;;;;;5032321;28;20037;-62
2023/06/10 09:19:45;;;;;;;15.07;8.35;;;30.60;99.90;;;;;;5083254;28;20125;-62
2023/06/10 09:22:11;;;;;;;12.43;7.88;;;30.90;99.90;;;;;;5094838;28;20055;-62
2023/06/10 09:24:38;;;;;;;10.15;7.22;;;31.00;99.90;;;;;;5094714;28;20020;-62
2023/06/10 09:27:07;;;;;;;12.57;7.30;;;31.00;99.90;;;;;;5094760;28;20081;-62
2023/06/10 09:29:53;;;;;;;10.63;7.40;;;31.40;99.90;;;;;;5095077;28;20080;-62
2023/06/10 09:32:20;;;;;;;10.27;7.28;;;31.00;99.90;;;;;;5094670;28;20054;-62
2023/06/10 09:34:46;;;;;;;11.38;7.00;;;30.30;99.90;;;;;;5094541;28;20016;-62
2023/06/10 09:37:13;;;;;;;9.52;6.97;;;30.90;99.90;;;;;;5094259;28;20118;-62
2023/06/10 09:39:42;;;;;;;11.80;6.97;;;31.50;99.90;;;;;;5094604;28;20032;-62
2023/06/10 09:42:20;;;;;;;7.30;6.10;;;31.90;99.90;;;;;;5094539;28;20363;-62
2023/06/10 09:44:51;;;;;;;10.43;6.47;;;31.80;99.90;;;;;;5094155;28;20051;-62
2023/06/10 09:47:22;;;;;;;9.63;7.43;;;31.40;99.90;;;;;;5094799;28;20428;-62
2023/06/10 09:49:50;;;;;;;9.38;7.13;;;31.40;99.90;;;;;;5094340;28;20031;-63
2023/06/10 09:52:27;;;;;;;10.18;7.28;;;30.70;99.90;;;;;;5094611;28;20466;-63
2023/06/10 09:54:54;;;;;;;13.40;7.65;;;30.00;99.90;;;;;;5094606;28;20034;-63
2023/06/10 09:57:21;;;;;;;13.07;7.80;;;28.80;99.90;;;;;;5096910;28;20026;-63
2023/06/10 09:59:47;;;;;;;11.73;7.68;;;28.10;99.90;;;;;;5098686;28;20461;-63
2023/06/10 10:02:17;;;;;;;10.68;7.95;;;27.70;99.90;;;;;;5098505;28;20111;-63
2023/06/10 10:04:46;;;;;;;15.00;7.97;;;27.60;99.90;;;;;;5098771;28;20032;-63
2023/06/10 10:07:13;;;;;;;16.48;8.23;;;27.20;99.90;;;;;;5098495;28;20036;-63
2023/06/10 10:09:41;;;;;;;12.90;7.85;;;26.80;99.90;;;;;;5098239;28;20035;-63
2023/06/10 10:12:12;;;;;;;13.35;8.35;;;26.60;99.90;;;;;;5098462;28;20032;-63
2023/06/10 10:14:41;;;;;;;13.73;7.70;;;26.80;99.90;;;;;;5098307;28;20044;-63
2023/06/10 10:17:11;;;;;;;14.68;7.60;;;26.60;99.90;;;;;;5098342;28;20028;-63
2023/06/10 10:20:03;;;;;;;16.27;9.87;;;26.30;99.90;;;;;;5098248;28;20053;-62
2023/06/10 10:22:39;;;;;;;18.40;8.98;;;26.40;99.90;;;;;;5097208;28;20024;-63
2023/06/10 10:25:16;;;;;;;18.45;8.57;;;26.90;99.90;;;;;;5098059;28;20031;-63
2023/06/10 10:27:56;;;;;;;9.25;6.60;;;27.50;99.90;;;;;;5097921;28;20028;-63
2023/06/10 10:30:23;;;;;;;;;;;26.80;99.90;;;;;;5098614;28;20020;-63
2023/06/10 10:32:56;;;;;;;12.45;8.45;;;27.60;99.90;;;;;;5097984;28;19961;-63
2023/06/10 10:35:24;;;;;;;9.68;6.90;;;28.60;99.90;;;;;;5097903;28;20028;-63
2023/06/10 10:37:54;;;;;;;9.68;6.40;;;29.20;99.90;;;;;;5097736;28;20052;-62
2023/06/10 10:40:21;;;;;;;;;;;28.80;99.90;;;;;;5098358;28;20103;-62
2023/06/10 10:42:49;;;;;;;11.50;8.35;;;29.60;99.90;;;;;;5098018;28;19908;-62
2023/06/10 10:45:15;;;;;;;8.95;7.95;;;29.60;99.90;;;;;;5097791;28;20024;-62
2023/06/10 10:47:45;;;;;;;13.43;8.88;;;29.70;99.90;;;;;;5097770;28;20385;-63
2023/06/10 10:50:20;;;;;;;12.52;7.55;;;29.70;99.90;;;;;;5097719;28;20032;-63
2023/06/10 10:52:53;;;;;;;11.80;8.00;;;29.70;99.90;;;;;;5097718;28;20024;-63
2023/06/10 10:55:20;;;;;;;9.95;7.93;;;29.20;99.90;;;;;;5097544;28;20035;-63
2023/06/10 10:57:56;;;;;;;10.18;8.10;;;29.10;99.90;;;;;;5097616;28;20462;-63
2023/06/10 11:00:31;;;;;;;11.38;7.82;;;29.00;99.90;;;;;;5097577;28;20024;-63
2023/06/10 11:03:07;;;;;;;18.02;6.30;;;29.00;99.90;;;;;;5097375;28;20028;-63
2023/06/10 11:05:38;;;;;;;17.48;5.13;;;28.30;99.90;;;;;;5097640;28;20044;-63
2023/06/10 11:08:07;;;;;;;11.00;4.03;;;27.70;99.90;;;;;;5096045;28;20063;-63
2023/06/10 11:10:41;;;;;;;11.75;3.80;;;26.80;99.90;;;;;;5097260;28;20542;-63
2023/06/10 11:13:08;;;;;;;19.75;5.88;;;25.90;99.90;;;;;;5097365;28;20027;-64
2023/06/10 11:15:39;;;;;;;17.65;5.60;;;25.20;99.90;;;;;;5097039;28;20028;-64
2023/06/10 11:18:25;;;;;;;18.67;5.68;;;23.90;99.90;;;;;;5097217;28;20046;-64
2023/06/10 11:20:56;;;;;;;12.57;4.88;;;23.50;99.90;;;;;;5097110;28;20091;-65
2023/06/10 11:23:30;;;;;;;9.52;3.95;;;23.70;99.90;;;;;;5097081;28;20055;-65
2023/06/10 11:26:20;;;;;;;11.25;4.20;;;23.20;99.90;;;;;;5096968;28;20028;-65
2023/06/10 11:28:47;;;;;;;7.85;4.00;;;22.50;99.90;;;;;;5095727;28;20020;-65
2023/06/10 11:31:23;;;;;;;10.40;4.30;;;22.50;99.90;;;;;;5095469;28;20600;-65
2023/06/10 11:33:59;;;;;;;11.00;4.32;;;22.50;99.90;;;;;;5096801;28;20546;-65
2023/06/10 11:36:27;;;;;;;11.45;4.55;;;22.10;99.90;;;;;;5096470;28;20042;-65
2023/06/10 11:39:02;;;;;;;15.90;4.60;;;21.90;99.90;;;;;;5096654;28;20101;-65
2023/06/10 11:41:30;;;;;;;7.30;4.57;;;21.70;99.90;;;;;;5096734;28;20032;-65
2023/06/10 11:44:01;;;;;;;7.43;4.35;;;21.70;99.90;;;;;;5096554;28;20059;-65
2023/06/10 11:46:27;;;;;;;12.20;4.28;;;21.90;99.90;;;;;;5096566;28;20036;-65
2023/06/10 11:48:55;;;;;;;9.88;5.32;;;22.50;99.90;;;;;;5096445;28;20500;-65
2023/06/10 11:51:21;;;;;;;8.30;4.97;;;23.40;99.90;;;;;;5096503;28;20482;-64
2023/06/10 11:53:48;;;;;;;8.38;4.93;;;24.20;99.90;;;;;;5096533;28;20035;-64
2023/06/10 11:56:23;;;;;;;15.98;7.28;;;24.70;99.90;;;;;;5096434;28;20102;-64
2023/06/10 11:58:57;;;;;;;10.82;6.63;;;25.30;99.90;;;;;;5096190;28;20119;-64
2023/06/10 12:01:24;;;;;;;14.38;7.53;;;25.60;99.90;;;;;;5096342;28;20115;-64
2023/06/10 12:03:58;;;;;;;20.15;7.47;;;25.30;99.90;;;;;;5096210;28;20027;-64
2023/06/10 12:06:24;;;;;;;10.95;6.53;;;25.60;99.90;;;;;;5096152;28;20085;-64
2023/06/10 12:08:50;;;;;;;10.57;6.55;;;26.20;99.90;;;;;;5096160;28;20028;-64
2023/06/10 12:11:16;;;;;;;11.45;5.45;;;26.70;99.90;;;;;;5096092;28;20028;-64
2023/06/10 12:13:50;;;;;;;8.55;5.35;;;26.90;99.90;;;;;;5095939;28;20051;-64
2023/06/10 12:16:17;;;;;;;9.13;5.00;;;27.10;99.90;;;;;;5096189;28;20030;-64
2023/06/10 12:18:47;;;;;;;6.45;4.88;;;27.80;99.90;;;;;;5095937;28;20016;-64
2023/06/10 12:21:39;;;;;;;7.78;5.35;;;28.20;99.90;;;;;;5095827;28;20032;-64
2023/06/10 12:24:09;;;;;;;6.03;5.03;;;28.50;99.90;;;;;;5092960;28;20063;-64
2023/06/10 12:26:40;;;;;;;13.23;5.80;;;28.70;99.90;;;;;;5095738;28;20054;-64
2023/06/10 12:29:26;;;;;;;;;;;28.90;99.90;;;;;;5096036;28;20032;-64
2023/06/10 12:31:57;;;;;;;9.05;4.93;;;29.40;99.90;;;;;;5095216;28;20269;-64
2023/06/10 12:34:40;;;;;;;6.57;3.88;;;29.70;99.90;;;;;;5095548;28;20039;-64
2023/06/10 12:37:13;;;;;;;7.22;4.13;;;30.00;99.90;;;;;;5075295;28;20098;-64